sensor_id;sensor_type;location;lat;lon;timestamp;P1;durP1;ratioP1;P2;durP2;ratioP2
56455;SDS011;42354;53.218;6.564;2022-09-13T00:01:40;36.40;;;22.45;;
56455;SDS011;42354;53.218;6.564;2022-09-13T00:04:06;37.88;;;23.38;;
56455;SDS011;42354;53.218;6.564;2022-09-13T00:06:31;38.58;;;23.65;;
56455;SDS011;42354;53.218;6.564;2022-09-13T00:08:56;39.33;;;23.63;;
56455;SDS011;42354;53.218;6.564;2022-09-13T00:11:23;45.38;;;25.48;;
56455;SDS011;42354;53.218;6.564;2022-09-13T00:13:51;41.20;;;25.33;;
56455;SDS011;42354;53.218;6.564;2022-09-13T00:16:19;45.65;;;26.58;;
56455;SDS011;42354;53.218;6.564;2022-09-13T00:18:45;41.35;;;26.05;;
56455;SDS011;42354;53.218;6.564;2022-09-13T00:21:13;45.70;;;24.63;;
56455;SDS011;42354;53.218;6.564;2022-09-13T00:23:42;42.60;;;26.30;;
56455;SDS011;42354;53.218;6.564;2022-09-13T00:26:10;39.70;;;23.15;;
56455;SDS011;42354;53.218;6.564;2022-09-13T00:28:37;38.30;;;23.77;;
56455;SDS011;42354;53.218;6.564;2022-09-13T00:31:04;39.83;;;22.15;;
56455;SDS011;42354;53.218;6.564;2022-09-13T00:33:31;38.28;;;22.15;;
56455;SDS011;42354;53.218;6.564;2022-09-13T00:35:57;38.85;;;22.63;;
56455;SDS011;42354;53.218;6.564;2022-09-13T00:38:22;35.63;;;21.38;;
56455;SDS011;42354;53.218;6.564;2022-09-13T00:40:48;37.50;;;23.33;;
56455;SDS011;42354;53.218;6.564;2022-09-13T00:43:17;40.08;;;24.13;;
56455;SDS011;42354;53.218;6.564;2022-09-13T00:45:45;44.22;;;24.85;;
56455;SDS011;42354;53.218;6.564;2022-09-13T00:48:21;35.53;;;21.70;;
56455;SDS011;42354;53.218;6.564;2022-09-13T00:50:50;38.38;;;21.52;;
56455;SDS011;42354;53.218;6.564;2022-09-13T00:53:23;37.35;;;22.05;;
56455;SDS011;42354;53.218;6.564;2022-09-13T00:55:57;39.80;;;22.88;;
56455;SDS011;42354;53.218;6.564;2022-09-13T01:01:00;47.70;;;25.48;;
56455;SDS011;42354;53.218;6.564;2022-09-13T01:03:29;47.80;;;26.70;;
56455;SDS011;42354;53.218;6.564;2022-09-13T01:06:07;58.05;;;29.45;;
56455;SDS011;42354;53.218;6.564;2022-09-13T01:08:36;51.65;;;27.23;;
56455;SDS011;42354;53.218;6.564;2022-09-13T01:11:05;56.45;;;29.15;;
56455;SDS011;42354;53.218;6.564;2022-09-13T01:13:36;52.83;;;28.95;;
56455;SDS011;42354;53.218;6.564;2022-09-13T01:16:02;49.13;;;27.33;;
56455;SDS011;42354;53.218;6.564;2022-09-13T01:18:28;48.15;;;27.02;;
56455;SDS011;42354;53.218;6.564;2022-09-13T01:21:01;44.20;;;25.45;;
56455;SDS011;42354;53.218;6.564;2022-09-13T01:26:31;44.60;;;25.02;;
56455;SDS011;42354;53.218;6.564;2022-09-13T01:37:28;30.80;;;18.65;;
56455;SDS011;42354;53.218;6.564;2022-09-13T01:51:07;32.65;;;17.42;;
56455;SDS011;42354;53.218;6.564;2022-09-13T01:53:50;27.60;;;17.40;;
56455;SDS011;42354;53.218;6.564;2022-09-13T01:56:26;27.77;;;17.00;;
56455;SDS011;42354;53.218;6.564;2022-09-13T01:58:58;26.00;;;17.13;;
56455;SDS011;42354;53.218;6.564;2022-09-13T02:01:30;26.75;;;16.80;;
56455;SDS011;42354;53.218;6.564;2022-09-13T02:04:04;29.40;;;17.38;;
56455;SDS011;42354;53.218;6.564;2022-09-13T02:06:44;31.02;;;17.40;;
56455;SDS011;42354;53.218;6.564;2022-09-13T02:09:14;28.13;;;18.00;;
56455;SDS011;42354;53.218;6.564;2022-09-13T02:11:46;29.55;;;18.45;;
56455;SDS011;42354;53.218;6.564;2022-09-13T02:14:26;31.52;;;18.15;;
56455;SDS011;42354;53.218;6.564;2022-09-13T02:22:35;31.30;;;18.05;;
56455;SDS011;42354;53.218;6.564;2022-09-13T02:25:08;27.13;;;17.50;;
56455;SDS011;42354;53.218;6.564;2022-09-13T02:27:37;29.58;;;17.58;;
56455;SDS011;42354;53.218;6.564;2022-09-13T02:30:07;31.45;;;18.02;;
56455;SDS011;42354;53.218;6.564;2022-09-13T02:32:39;32.17;;;17.80;;
56455;SDS011;42354;53.218;6.564;2022-09-13T02:35:52;32.10;;;18.52;;
56455;SDS011;42354;53.218;6.564;2022-09-13T02:38:07;28.45;;;17.33;;
56455;SDS011;42354;53.218;6.564;2022-09-13T02:40:38;26.48;;;17.70;;
56455;SDS011;42354;53.218;6.564;2022-09-13T02:43:15;29.90;;;19.08;;
56455;SDS011;42354;53.218;6.564;2022-09-13T02:45:52;30.08;;;18.83;;
56455;SDS011;42354;53.218;6.564;2022-09-13T02:48:29;30.08;;;18.67;;
56455;SDS011;42354;53.218;6.564;2022-09-13T02:56:43;29.92;;;20.02;;
56455;SDS011;42354;53.218;6.564;2022-09-13T02:59:19;31.67;;;22.30;;
56455;SDS011;42354;53.218;6.564;2022-09-13T03:02:08;33.03;;;20.50;;
56455;SDS011;42354;53.218;6.564;2022-09-13T03:04:35;34.22;;;20.58;;
56455;SDS011;42354;53.218;6.564;2022-09-13T03:07:01;29.20;;;18.73;;
56455;SDS011;42354;53.218;6.564;2022-09-13T03:09:30;28.40;;;17.02;;
56455;SDS011;42354;53.218;6.564;2022-09-13T03:17:14;19.17;;;11.35;;
56455;SDS011;42354;53.218;6.564;2022-09-13T03:32:23;16.60;;;8.93;;
56455;SDS011;42354;53.218;6.564;2022-09-13T03:45:03;8.38;;;2.42;;
56455;SDS011;42354;53.218;6.564;2022-09-13T03:47:33;4.57;;;1.77;;
56455;SDS011;42354;53.218;6.564;2022-09-13T03:50:02;3.90;;;1.65;;
56455;SDS011;42354;53.218;6.564;2022-09-13T03:52:29;6.57;;;1.88;;
56455;SDS011;42354;53.218;6.564;2022-09-13T03:54:56;6.90;;;1.63;;
56455;SDS011;42354;53.218;6.564;2022-09-13T03:57:22;4.30;;;1.80;;
56455;SDS011;42354;53.218;6.564;2022-09-13T03:59:51;4.20;;;1.35;;
56455;SDS011;42354;53.218;6.564;2022-09-13T04:02:19;3.90;;;1.50;;
56455;SDS011;42354;53.218;6.564;2022-09-13T04:04:47;6.00;;;1.55;;
56455;SDS011;42354;53.218;6.564;2022-09-13T04:07:17;4.45;;;1.55;;
56455;SDS011;42354;53.218;6.564;2022-09-13T04:09:44;3.20;;;1.65;;
56455;SDS011;42354;53.218;6.564;2022-09-13T04:12:10;9.45;;;4.82;;
56455;SDS011;42354;53.218;6.564;2022-09-13T04:14:38;8.60;;;4.70;;
56455;SDS011;42354;53.218;6.564;2022-09-13T04:17:03;9.75;;;5.50;;
56455;SDS011;42354;53.218;6.564;2022-09-13T04:19:29;10.73;;;4.85;;
56455;SDS011;42354;53.218;6.564;2022-09-13T04:21:55;7.93;;;5.47;;
56455;SDS011;42354;53.218;6.564;2022-09-13T04:24:24;10.48;;;4.75;;
56455;SDS011;42354;53.218;6.564;2022-09-13T04:26:51;8.52;;;4.28;;
56455;SDS011;42354;53.218;6.564;2022-09-13T04:29:18;6.63;;;3.80;;
56455;SDS011;42354;53.218;6.564;2022-09-13T04:31:44;6.75;;;3.58;;
56455;SDS011;42354;53.218;6.564;2022-09-13T04:34:09;8.05;;;4.00;;
56455;SDS011;42354;53.218;6.564;2022-09-13T04:36:35;7.97;;;3.05;;
56455;SDS011;42354;53.218;6.564;2022-09-13T04:39:01;6.47;;;2.70;;
56455;SDS011;42354;53.218;6.564;2022-09-13T04:41:27;8.52;;;2.90;;
56455;SDS011;42354;53.218;6.564;2022-09-13T04:43:53;7.00;;;2.20;;
56455;SDS011;42354;53.218;6.564;2022-09-13T04:46:18;8.23;;;2.13;;
56455;SDS011;42354;53.218;6.564;2022-09-13T04:48:48;4.82;;;2.47;;
56455;SDS011;42354;53.218;6.564;2022-09-13T04:51:14;10.90;;;2.17;;
56455;SDS011;42354;53.218;6.564;2022-09-13T04:53:41;4.43;;;2.17;;
56455;SDS011;42354;53.218;6.564;2022-09-13T04:56:09;8.27;;;2.25;;
56455;SDS011;42354;53.218;6.564;2022-09-13T04:58:35;5.38;;;2.40;;
56455;SDS011;42354;53.218;6.564;2022-09-13T05:01:01;8.07;;;2.30;;
56455;SDS011;42354;53.218;6.564;2022-09-13T05:03:30;7.50;;;2.40;;
56455;SDS011;42354;53.218;6.564;2022-09-13T05:06:07;6.55;;;2.58;;
56455;SDS011;42354;53.218;6.564;2022-09-13T05:08:35;8.52;;;2.30;;
56455;SDS011;42354;53.218;6.564;2022-09-13T05:11:01;9.68;;;3.53;;
56455;SDS011;42354;53.218;6.564;2022-09-13T05:13:27;8.95;;;3.70;;
56455;SDS011;42354;53.218;6.564;2022-09-13T05:15:59;9.32;;;4.82;;
56455;SDS011;42354;53.218;6.564;2022-09-13T05:18:27;7.43;;;4.45;;
56455;SDS011;42354;53.218;6.564;2022-09-13T05:20:54;9.48;;;4.80;;
56455;SDS011;42354;53.218;6.564;2022-09-13T05:23:20;9.25;;;4.40;;
56455;SDS011;42354;53.218;6.564;2022-09-13T05:25:51;8.02;;;3.58;;
56455;SDS011;42354;53.218;6.564;2022-09-13T05:28:27;11.13;;;3.78;;
56455;SDS011;42354;53.218;6.564;2022-09-13T05:31:00;12.90;;;3.42;;
56455;SDS011;42354;53.218;6.564;2022-09-13T05:33:27;7.38;;;3.63;;
56455;SDS011;42354;53.218;6.564;2022-09-13T05:35:54;8.77;;;3.10;;
56455;SDS011;42354;53.218;6.564;2022-09-13T05:38:19;8.25;;;2.88;;
56455;SDS011;42354;53.218;6.564;2022-09-13T05:40:45;11.38;;;3.28;;
56455;SDS011;42354;53.218;6.564;2022-09-13T05:43:12;13.77;;;2.63;;
56455;SDS011;42354;53.218;6.564;2022-09-13T05:45:38;9.38;;;2.70;;
56455;SDS011;42354;53.218;6.564;2022-09-13T05:48:04;9.85;;;3.00;;
56455;SDS011;42354;53.218;6.564;2022-09-13T05:50:29;8.57;;;2.30;;
56455;SDS011;42354;53.218;6.564;2022-09-13T05:52:54;9.73;;;2.50;;
56455;SDS011;42354;53.218;6.564;2022-09-13T05:55:20;9.95;;;2.47;;
56455;SDS011;42354;53.218;6.564;2022-09-13T05:57:47;10.95;;;2.45;;
56455;SDS011;42354;53.218;6.564;2022-09-13T06:00:13;8.15;;;2.85;;
56455;SDS011;42354;53.218;6.564;2022-09-13T06:02:39;9.25;;;2.90;;
56455;SDS011;42354;53.218;6.564;2022-09-13T06:05:05;11.05;;;2.47;;
56455;SDS011;42354;53.218;6.564;2022-09-13T06:07:31;10.73;;;2.55;;
56455;SDS011;42354;53.218;6.564;2022-09-13T06:09:57;17.17;;;3.30;;
56455;SDS011;42354;53.218;6.564;2022-09-13T06:12:22;12.00;;;2.60;;
56455;SDS011;42354;53.218;6.564;2022-09-13T06:14:48;11.15;;;2.70;;
56455;SDS011;42354;53.218;6.564;2022-09-13T06:17:13;9.98;;;2.55;;
56455;SDS011;42354;53.218;6.564;2022-09-13T06:19:39;10.68;;;2.42;;
56455;SDS011;42354;53.218;6.564;2022-09-13T06:22:04;8.98;;;2.42;;
56455;SDS011;42354;53.218;6.564;2022-09-13T06:24:30;12.63;;;2.45;;
56455;SDS011;42354;53.218;6.564;2022-09-13T06:26:55;6.07;;;2.17;;
56455;SDS011;42354;53.218;6.564;2022-09-13T06:29:20;7.72;;;2.10;;
56455;SDS011;42354;53.218;6.564;2022-09-13T06:31:46;10.07;;;2.50;;
56455;SDS011;42354;53.218;6.564;2022-09-13T06:34:11;12.07;;;3.08;;
56455;SDS011;42354;53.218;6.564;2022-09-13T06:36:39;9.48;;;2.92;;
56455;SDS011;42354;53.218;6.564;2022-09-13T06:39:05;10.68;;;2.72;;
56455;SDS011;42354;53.218;6.564;2022-09-13T06:41:30;9.57;;;2.78;;
56455;SDS011;42354;53.218;6.564;2022-09-13T06:43:57;11.18;;;2.80;;
56455;SDS011;42354;53.218;6.564;2022-09-13T06:46:24;9.23;;;2.38;;
56455;SDS011;42354;53.218;6.564;2022-09-13T06:48:50;11.15;;;2.40;;
56455;SDS011;42354;53.218;6.564;2022-09-13T06:51:17;10.35;;;1.90;;
56455;SDS011;42354;53.218;6.564;2022-09-13T06:53:45;6.88;;;1.90;;
56455;SDS011;42354;53.218;6.564;2022-09-13T06:56:19;8.13;;;2.17;;
56455;SDS011;42354;53.218;6.564;2022-09-13T06:58:49;9.93;;;1.67;;
56455;SDS011;42354;53.218;6.564;2022-09-13T07:03:42;6.13;;;1.53;;
56455;SDS011;42354;53.218;6.564;2022-09-13T07:06:32;9.52;;;1.95;;
56455;SDS011;42354;53.218;6.564;2022-09-13T07:08:59;9.90;;;1.60;;
56455;SDS011;42354;53.218;6.564;2022-09-13T07:11:29;8.75;;;1.70;;
56455;SDS011;42354;53.218;6.564;2022-09-13T07:13:56;6.70;;;1.40;;
56455;SDS011;42354;53.218;6.564;2022-09-13T07:16:24;9.70;;;1.23;;
56455;SDS011;42354;53.218;6.564;2022-09-13T07:19:00;11.10;;;1.67;;
56455;SDS011;42354;53.218;6.564;2022-09-13T07:21:31;10.10;;;1.50;;
56455;SDS011;42354;53.218;6.564;2022-09-13T07:23:58;4.85;;;1.02;;
56455;SDS011;42354;53.218;6.564;2022-09-13T07:26:24;6.75;;;0.93;;
56455;SDS011;42354;53.218;6.564;2022-09-13T07:28:51;6.88;;;1.38;;
56455;SDS011;42354;53.218;6.564;2022-09-13T07:33:46;5.38;;;1.13;;
56455;SDS011;42354;53.218;6.564;2022-09-13T07:36:16;11.35;;;1.65;;
56455;SDS011;42354;53.218;6.564;2022-09-13T07:38:42;5.32;;;0.95;;
56455;SDS011;42354;53.218;6.564;2022-09-13T07:41:11;6.35;;;0.95;;
56455;SDS011;42354;53.218;6.564;2022-09-13T07:43:45;4.63;;;0.88;;
56455;SDS011;42354;53.218;6.564;2022-09-13T07:46:11;9.13;;;1.30;;
56455;SDS011;42354;53.218;6.564;2022-09-13T07:48:39;4.00;;;0.85;;
56455;SDS011;42354;53.218;6.564;2022-09-13T07:51:07;3.90;;;0.60;;
56455;SDS011;42354;53.218;6.564;2022-09-13T07:53:34;5.70;;;0.82;;
56455;SDS011;42354;53.218;6.564;2022-09-13T07:56:03;3.47;;;0.82;;
56455;SDS011;42354;53.218;6.564;2022-09-13T07:58:33;7.90;;;0.90;;
56455;SDS011;42354;53.218;6.564;2022-09-13T08:01:07;4.78;;;1.08;;
56455;SDS011;42354;53.218;6.564;2022-09-13T08:03:33;4.25;;;0.88;;
56455;SDS011;42354;53.218;6.564;2022-09-13T08:06:00;3.80;;;0.70;;
56455;SDS011;42354;53.218;6.564;2022-09-13T08:08:26;4.65;;;0.70;;
56455;SDS011;42354;53.218;6.564;2022-09-13T08:10:52;6.13;;;1.05;;
56455;SDS011;42354;53.218;6.564;2022-09-13T08:13:17;7.70;;;1.08;;
56455;SDS011;42354;53.218;6.564;2022-09-13T08:15:43;4.97;;;0.80;;
56455;SDS011;42354;53.218;6.564;2022-09-13T08:18:08;3.88;;;0.68;;
56455;SDS011;42354;53.218;6.564;2022-09-13T08:20:34;4.43;;;0.63;;
56455;SDS011;42354;53.218;6.564;2022-09-13T08:23:02;6.47;;;0.90;;
56455;SDS011;42354;53.218;6.564;2022-09-13T08:25:27;9.23;;;1.02;;
56455;SDS011;42354;53.218;6.564;2022-09-13T08:27:52;5.03;;;0.70;;
56455;SDS011;42354;53.218;6.564;2022-09-13T08:30:18;3.00;;;0.60;;
56455;SDS011;42354;53.218;6.564;2022-09-13T08:32:43;5.07;;;0.60;;
56455;SDS011;42354;53.218;6.564;2022-09-13T08:35:08;4.47;;;0.70;;
56455;SDS011;42354;53.218;6.564;2022-09-13T08:37:34;4.82;;;0.80;;
56455;SDS011;42354;53.218;6.564;2022-09-13T08:39:59;7.57;;;1.33;;
56455;SDS011;42354;53.218;6.564;2022-09-13T08:45:15;5.18;;;0.93;;
56455;SDS011;42354;53.218;6.564;2022-09-13T08:47:42;10.63;;;0.93;;
56455;SDS011;42354;53.218;6.564;2022-09-13T08:50:22;3.92;;;0.68;;
56455;SDS011;42354;53.218;6.564;2022-09-13T08:58:21;6.97;;;0.88;;
56455;SDS011;42354;53.218;6.564;2022-09-13T09:00:52;9.65;;;0.90;;
56455;SDS011;42354;53.218;6.564;2022-09-13T09:05:57;5.22;;;0.90;;
56455;SDS011;42354;53.218;6.564;2022-09-13T09:08:29;8.93;;;0.85;;
56455;SDS011;42354;53.218;6.564;2022-09-13T09:10:58;2.33;;;0.63;;
56455;SDS011;42354;53.218;6.564;2022-09-13T09:13:34;5.90;;;0.73;;
56455;SDS011;42354;53.218;6.564;2022-09-13T09:16:23;4.55;;;0.80;;
56455;SDS011;42354;53.218;6.564;2022-09-13T09:19:28;5.22;;;0.80;;
56455;SDS011;42354;53.218;6.564;2022-09-13T09:22:00;3.47;;;0.65;;
56455;SDS011;42354;53.218;6.564;2022-09-13T09:24:30;4.65;;;0.80;;
56455;SDS011;42354;53.218;6.564;2022-09-13T09:27:00;5.03;;;0.57;;
56455;SDS011;42354;53.218;6.564;2022-09-13T09:29:34;9.80;;;0.80;;
56455;SDS011;42354;53.218;6.564;2022-09-13T09:37:37;7.75;;;1.13;;
56455;SDS011;42354;53.218;6.564;2022-09-13T09:40:05;4.65;;;0.68;;
56455;SDS011;42354;53.218;6.564;2022-09-13T09:42:43;5.80;;;0.80;;
56455;SDS011;42354;53.218;6.564;2022-09-13T09:45:25;6.70;;;1.23;;
56455;SDS011;42354;53.218;6.564;2022-09-13T09:47:53;5.82;;;0.90;;
56455;SDS011;42354;53.218;6.564;2022-09-13T09:50:21;6.32;;;1.00;;
56455;SDS011;42354;53.218;6.564;2022-09-13T09:58:02;8.15;;;1.02;;
56455;SDS011;42354;53.218;6.564;2022-09-13T10:00:37;3.75;;;0.80;;
56455;SDS011;42354;53.218;6.564;2022-09-13T10:03:18;9.60;;;0.90;;
56455;SDS011;42354;53.218;6.564;2022-09-13T10:05:48;6.95;;;1.40;;
56455;SDS011;42354;53.218;6.564;2022-09-13T10:08:27;6.30;;;0.98;;
56455;SDS011;42354;53.218;6.564;2022-09-13T10:13:24;5.32;;;1.25;;
56455;SDS011;42354;53.218;6.564;2022-09-13T10:16:00;6.80;;;1.00;;
56455;SDS011;42354;53.218;6.564;2022-09-13T10:18:27;5.50;;;0.77;;
56455;SDS011;42354;53.218;6.564;2022-09-13T10:21:19;3.42;;;0.70;;
56455;SDS011;42354;53.218;6.564;2022-09-13T10:23:43;6.50;;;0.95;;
56455;SDS011;42354;53.218;6.564;2022-09-13T10:26:12;5.93;;;0.70;;
56455;SDS011;42354;53.218;6.564;2022-09-13T10:28:45;3.38;;;0.77;;
56455;SDS011;42354;53.218;6.564;2022-09-13T10:31:21;6.47;;;0.88;;
56455;SDS011;42354;53.218;6.564;2022-09-13T10:36:28;5.95;;;0.90;;
56455;SDS011;42354;53.218;6.564;2022-09-13T10:38:58;4.93;;;0.95;;
56455;SDS011;42354;53.218;6.564;2022-09-13T10:41:26;3.90;;;0.60;;
56455;SDS011;42354;53.218;6.564;2022-09-13T10:43:56;6.25;;;0.93;;
56455;SDS011;42354;53.218;6.564;2022-09-13T10:46:28;6.55;;;0.75;;
56455;SDS011;42354;53.218;6.564;2022-09-13T10:48:55;5.40;;;0.80;;
56455;SDS011;42354;53.218;6.564;2022-09-13T10:51:32;3.53;;;0.90;;
56455;SDS011;42354;53.218;6.564;2022-09-13T10:56:50;7.22;;;1.02;;
56455;SDS011;42354;53.218;6.564;2022-09-13T11:01:52;4.70;;;0.68;;
56455;SDS011;42354;53.218;6.564;2022-09-13T11:07:43;4.22;;;0.90;;
56455;SDS011;42354;53.218;6.564;2022-09-13T11:10:19;9.07;;;1.10;;
56455;SDS011;42354;53.218;6.564;2022-09-13T11:24:28;5.00;;;0.65;;
56455;SDS011;42354;53.218;6.564;2022-09-13T11:30:18;10.02;;;1.70;;
56455;SDS011;42354;53.218;6.564;2022-09-13T11:51:40;6.90;;;2.10;;
56455;SDS011;42354;53.218;6.564;2022-09-13T11:56:49;13.45;;;2.67;;
56455;SDS011;42354;53.218;6.564;2022-09-13T11:59:42;7.05;;;1.05;;
56455;SDS011;42354;53.218;6.564;2022-09-13T12:05:00;8.77;;;1.77;;
56455;SDS011;42354;53.218;6.564;2022-09-13T12:07:37;5.80;;;0.98;;
56455;SDS011;42354;53.218;6.564;2022-09-13T12:13:26;4.67;;;1.13;;
56455;SDS011;42354;53.218;6.564;2022-09-13T12:16:00;8.70;;;1.20;;
56455;SDS011;42354;53.218;6.564;2022-09-13T12:18:37;4.68;;;1.00;;
56455;SDS011;42354;53.218;6.564;2022-09-13T12:21:09;6.95;;;1.20;;
56455;SDS011;42354;53.218;6.564;2022-09-13T12:23:42;7.35;;;1.48;;
56455;SDS011;42354;53.218;6.564;2022-09-13T12:26:18;6.95;;;1.20;;
56455;SDS011;42354;53.218;6.564;2022-09-13T12:28:50;5.18;;;1.00;;
56455;SDS011;42354;53.218;6.564;2022-09-13T12:31:19;8.60;;;1.33;;
56455;SDS011;42354;53.218;6.564;2022-09-13T12:33:48;5.30;;;0.98;;
56455;SDS011;42354;53.218;6.564;2022-09-13T12:41:45;12.85;;;2.03;;
56455;SDS011;42354;53.218;6.564;2022-09-13T13:03:21;7.82;;;1.20;;
56455;SDS011;42354;53.218;6.564;2022-09-13T13:05:56;8.80;;;1.25;;
56455;SDS011;42354;53.218;6.564;2022-09-13T13:08:40;10.27;;;1.50;;
56455;SDS011;42354;53.218;6.564;2022-09-13T13:11:15;10.60;;;1.10;;
56455;SDS011;42354;53.218;6.564;2022-09-13T13:14:00;9.82;;;1.23;;
56455;SDS011;42354;53.218;6.564;2022-09-13T13:16:37;7.88;;;1.10;;
56455;SDS011;42354;53.218;6.564;2022-09-13T13:21:55;5.80;;;1.40;;
56455;SDS011;42354;53.218;6.564;2022-09-13T13:24:44;11.52;;;1.58;;
56455;SDS011;42354;53.218;6.564;2022-09-13T13:33:04;6.35;;;1.02;;
56455;SDS011;42354;53.218;6.564;2022-09-13T13:35:41;7.03;;;1.50;;
56455;SDS011;42354;53.218;6.564;2022-09-13T13:38:15;11.48;;;1.35;;
56455;SDS011;42354;53.218;6.564;2022-09-13T13:40:41;4.88;;;0.80;;
56455;SDS011;42354;53.218;6.564;2022-09-13T13:48:39;4.85;;;0.65;;
56455;SDS011;42354;53.218;6.564;2022-09-13T13:51:12;8.32;;;1.20;;
56455;SDS011;42354;53.218;6.564;2022-09-13T13:53:44;5.57;;;0.80;;
56455;SDS011;42354;53.218;6.564;2022-09-13T13:59:15;10.45;;;1.27;;
56455;SDS011;42354;53.218;6.564;2022-09-13T14:01:48;8.55;;;1.15;;
56455;SDS011;42354;53.218;6.564;2022-09-13T14:12:38;11.15;;;2.30;;
56455;SDS011;42354;53.218;6.564;2022-09-13T14:20:20;9.88;;;1.38;;
56455;SDS011;42354;53.218;6.564;2022-09-13T14:22:45;10.38;;;1.25;;
56455;SDS011;42354;53.218;6.564;2022-09-13T14:25:29;8.75;;;1.40;;
56455;SDS011;42354;53.218;6.564;2022-09-13T14:27:55;8.18;;;1.05;;
56455;SDS011;42354;53.218;6.564;2022-09-13T14:30:44;5.45;;;0.70;;
56455;SDS011;42354;53.218;6.564;2022-09-13T14:33:15;9.00;;;1.10;;
56455;SDS011;42354;53.218;6.564;2022-09-13T14:35:46;4.18;;;1.02;;
56455;SDS011;42354;53.218;6.564;2022-09-13T14:38:24;3.70;;;0.80;;
56455;SDS011;42354;53.218;6.564;2022-09-13T14:40:57;3.58;;;1.00;;
56455;SDS011;42354;53.218;6.564;2022-09-13T14:43:24;7.47;;;1.10;;
56455;SDS011;42354;53.218;6.564;2022-09-13T14:45:52;6.90;;;0.98;;
56455;SDS011;42354;53.218;6.564;2022-09-13T14:49:07;6.13;;;1.58;;
56455;SDS011;42354;53.218;6.564;2022-09-13T14:53:46;7.07;;;0.95;;
56455;SDS011;42354;53.218;6.564;2022-09-13T14:56:15;7.38;;;1.45;;
56455;SDS011;42354;53.218;6.564;2022-09-13T15:01:55;6.82;;;1.10;;
56455;SDS011;42354;53.218;6.564;2022-09-13T15:04:24;5.13;;;0.90;;
56455;SDS011;42354;53.218;6.564;2022-09-13T15:07:08;5.65;;;1.00;;
56455;SDS011;42354;53.218;6.564;2022-09-13T15:09:44;5.28;;;0.80;;
56455;SDS011;42354;53.218;6.564;2022-09-13T15:12:20;5.88;;;1.10;;
56455;SDS011;42354;53.218;6.564;2022-09-13T15:14:49;6.25;;;1.92;;
56455;SDS011;42354;53.218;6.564;2022-09-13T15:20:22;9.13;;;1.67;;
56455;SDS011;42354;53.218;6.564;2022-09-13T15:22:49;9.50;;;1.42;;
56455;SDS011;42354;53.218;6.564;2022-09-13T15:25:20;8.15;;;1.10;;
56455;SDS011;42354;53.218;6.564;2022-09-13T15:27:50;8.00;;;0.90;;
56455;SDS011;42354;53.218;6.564;2022-09-13T15:32:46;6.82;;;1.30;;
56455;SDS011;42354;53.218;6.564;2022-09-13T15:36:11;6.45;;;1.20;;
56455;SDS011;42354;53.218;6.564;2022-09-13T15:40:42;6.28;;;1.00;;
56455;SDS011;42354;53.218;6.564;2022-09-13T15:43:10;5.90;;;1.00;;
56455;SDS011;42354;53.218;6.564;2022-09-13T15:45:35;2.25;;;0.60;;
56455;SDS011;42354;53.218;6.564;2022-09-13T15:48:00;3.97;;;1.73;;
56455;SDS011;42354;53.218;6.564;2022-09-13T15:50:27;7.15;;;1.08;;
56455;SDS011;42354;53.218;6.564;2022-09-13T15:52:58;5.63;;;0.80;;
56455;SDS011;42354;53.218;6.564;2022-09-13T15:55:24;9.45;;;1.52;;
56455;SDS011;42354;53.218;6.564;2022-09-13T15:57:50;6.55;;;1.23;;
56455;SDS011;42354;53.218;6.564;2022-09-13T16:00:17;6.40;;;1.10;;
56455;SDS011;42354;53.218;6.564;2022-09-13T16:02:44;11.05;;;1.17;;
56455;SDS011;42354;53.218;6.564;2022-09-13T16:05:10;7.10;;;1.02;;
56455;SDS011;42354;53.218;6.564;2022-09-13T16:07:36;4.43;;;0.85;;
56455;SDS011;42354;53.218;6.564;2022-09-13T16:10:03;3.60;;;1.02;;
56455;SDS011;42354;53.218;6.564;2022-09-13T16:12:35;7.97;;;0.90;;
56455;SDS011;42354;53.218;6.564;2022-09-13T16:15:00;6.60;;;1.40;;
56455;SDS011;42354;53.218;6.564;2022-09-13T16:17:26;5.10;;;0.80;;
56455;SDS011;42354;53.218;6.564;2022-09-13T16:19:52;7.55;;;1.10;;
56455;SDS011;42354;53.218;6.564;2022-09-13T16:22:18;3.78;;;0.82;;
56455;SDS011;42354;53.218;6.564;2022-09-13T16:24:46;7.57;;;1.33;;
56455;SDS011;42354;53.218;6.564;2022-09-13T16:27:12;6.50;;;0.90;;
56455;SDS011;42354;53.218;6.564;2022-09-13T16:29:39;4.88;;;0.93;;
56455;SDS011;42354;53.218;6.564;2022-09-13T16:32:05;7.05;;;1.17;;
56455;SDS011;42354;53.218;6.564;2022-09-13T16:34:34;2.58;;;0.70;;
56455;SDS011;42354;53.218;6.564;2022-09-13T16:36:59;7.20;;;1.10;;
56455;SDS011;42354;53.218;6.564;2022-09-13T16:39:26;10.88;;;1.02;;
56455;SDS011;42354;53.218;6.564;2022-09-13T16:41:53;8.40;;;1.10;;
56455;SDS011;42354;53.218;6.564;2022-09-13T16:44:19;15.35;;;2.92;;
56455;SDS011;42354;53.218;6.564;2022-09-13T16:46:45;8.95;;;0.98;;
56455;SDS011;42354;53.218;6.564;2022-09-13T16:49:10;5.85;;;0.90;;
56455;SDS011;42354;53.218;6.564;2022-09-13T16:51:36;4.13;;;1.20;;
56455;SDS011;42354;53.218;6.564;2022-09-13T16:54:02;7.88;;;1.48;;
56455;SDS011;42354;53.218;6.564;2022-09-13T16:56:28;8.32;;;2.47;;
56455;SDS011;42354;53.218;6.564;2022-09-13T16:58:54;8.57;;;1.17;;
56455;SDS011;42354;53.218;6.564;2022-09-13T17:01:24;9.32;;;2.25;;
56455;SDS011;42354;53.218;6.564;2022-09-13T17:03:51;7.95;;;1.88;;
56455;SDS011;42354;53.218;6.564;2022-09-13T17:06:19;8.63;;;2.00;;
56455;SDS011;42354;53.218;6.564;2022-09-13T17:08:46;11.10;;;2.30;;
56455;SDS011;42354;53.218;6.564;2022-09-13T17:11:25;6.70;;;1.17;;
56455;SDS011;42354;53.218;6.564;2022-09-13T17:13:52;9.70;;;2.60;;
56455;SDS011;42354;53.218;6.564;2022-09-13T17:16:40;4.80;;;1.35;;
56455;SDS011;42354;53.218;6.564;2022-09-13T17:19:07;6.00;;;1.23;;
56455;SDS011;42354;53.218;6.564;2022-09-13T17:21:35;6.60;;;1.35;;
56455;SDS011;42354;53.218;6.564;2022-09-13T17:24:02;4.90;;;0.90;;
56455;SDS011;42354;53.218;6.564;2022-09-13T17:26:29;5.10;;;1.00;;
56455;SDS011;42354;53.218;6.564;2022-09-13T17:28:55;7.85;;;1.30;;
56455;SDS011;42354;53.218;6.564;2022-09-13T17:31:21;11.40;;;3.30;;
56455;SDS011;42354;53.218;6.564;2022-09-13T17:33:46;12.05;;;3.33;;
56455;SDS011;42354;53.218;6.564;2022-09-13T17:36:12;6.70;;;2.58;;
56455;SDS011;42354;53.218;6.564;2022-09-13T17:38:38;6.43;;;0.93;;
56455;SDS011;42354;53.218;6.564;2022-09-13T17:41:09;5.60;;;0.77;;
56455;SDS011;42354;53.218;6.564;2022-09-13T17:43:40;5.55;;;1.40;;
56455;SDS011;42354;53.218;6.564;2022-09-13T17:46:07;4.40;;;1.48;;
56455;SDS011;42354;53.218;6.564;2022-09-13T17:48:35;6.68;;;1.25;;
56455;SDS011;42354;53.218;6.564;2022-09-13T17:51:07;4.03;;;0.90;;
56455;SDS011;42354;53.218;6.564;2022-09-13T17:53:38;5.47;;;0.98;;
56455;SDS011;42354;53.218;6.564;2022-09-13T17:56:05;4.07;;;1.80;;
56455;SDS011;42354;53.218;6.564;2022-09-13T17:58:31;3.85;;;1.40;;
56455;SDS011;42354;53.218;6.564;2022-09-13T18:01:03;4.30;;;0.95;;
56455;SDS011;42354;53.218;6.564;2022-09-13T18:03:33;3.90;;;1.00;;
56455;SDS011;42354;53.218;6.564;2022-09-13T18:06:00;6.30;;;1.10;;
56455;SDS011;42354;53.218;6.564;2022-09-13T18:08:27;7.68;;;1.23;;
56455;SDS011;42354;53.218;6.564;2022-09-13T18:10:54;6.55;;;0.95;;
56455;SDS011;42354;53.218;6.564;2022-09-13T18:13:26;8.35;;;1.63;;
56455;SDS011;42354;53.218;6.564;2022-09-13T18:16:04;4.07;;;1.10;;
56455;SDS011;42354;53.218;6.564;2022-09-13T18:18:35;6.63;;;0.90;;
56455;SDS011;42354;53.218;6.564;2022-09-13T18:21:01;10.32;;;1.30;;
56455;SDS011;42354;53.218;6.564;2022-09-13T18:23:27;3.78;;;0.80;;
56455;SDS011;42354;53.218;6.564;2022-09-13T18:25:57;5.22;;;1.10;;
56455;SDS011;42354;53.218;6.564;2022-09-13T18:28:23;5.28;;;0.80;;
56455;SDS011;42354;53.218;6.564;2022-09-13T18:30:56;7.63;;;1.70;;
56455;SDS011;42354;53.218;6.564;2022-09-13T18:33:23;5.75;;;0.90;;